PWSweather.com
Personal Weather Stations
Station Observations
KOMOKA
Komoka Village, Komoka, ON N0L IRO

Komoka VillageKomoka, ON N0L IRO

Lat: 42.9542444, Lon: -81.4348861

Elevation: 805

Station Type: Davis Vantage Pro 2

Latest ConditionsUpdated 4:11:17 PM EST Sunday, Jan 19, 2020
Currently Today's Max Today's Min Today's Average
Temperature 20.8°F-6.2°C 30.4°F-0.9°C 20.8°F-6.2°C 24.2°F-4.3°C
Dew Point 10.9°F-11.7°C 23.0°F-5.0°C 10.9°F-11.7°C 15.3°F-9.3°C
Winds 4.0 mph N6.4 kmh N 12.0 mph -19.3 kmh - - 7.8 mph 12.6 kmh
Wind Gusts 15.0 mph24.1 kmh 33.0 mph53.1 kmh - -
Humidity 65% 74% 65% 68%
Pressure 30.05 in1017.6 mb 30.05 in1017.6 mb 29.60 in1002.4 mb -
Hour Temp Dew Point Humidity Winds Wind Gusts Pressure Precip Precip Rate Daily Precip Total
04:11 PM 20.8°F-6.2°C 10.9°F-11.7°C 65% 4.0 mph N6.4 kmh N 15.0 mph24.1 kmh 30.05 in1017.6 mb 0.00 in0.0 mm 0.00 in0.0 mm 0.00 in0.0 mm
04:04 PM 21.0°F-6.1°C 11.1°F-11.6°C 65% 5.0 mph N8.0 kmh N 15.0 mph24.1 kmh 30.05 in1017.6 mb 0.00 in0.0 mm 0.00 in0.0 mm 0.00 in0.0 mm
03:57 PM 21.0°F-6.1°C 11.1°F-11.6°C 65% 5.0 mph N8.0 kmh N 13.0 mph20.9 kmh 30.05 in1017.6 mb 0.00 in0.0 mm 0.00 in0.0 mm 0.00 in0.0 mm
03:50 PM 21.4°F-5.9°C 11.3°F-11.5°C 65% 5.0 mph N8.0 kmh N 16.0 mph25.7 kmh 30.04 in1017.3 mb 0.00 in0.0 mm 0.00 in0.0 mm 0.00 in0.0 mm
03:43 PM 21.6°F-5.8°C 11.5°F-11.4°C 65% 5.0 mph N8.0 kmh N 16.0 mph25.7 kmh 30.04 in1017.3 mb 0.00 in0.0 mm 0.00 in0.0 mm 0.00 in0.0 mm
03:36 PM 21.7°F-5.7°C 12.4°F-10.9°C 67% 5.0 mph N8.0 kmh N 12.0 mph19.3 kmh 30.03 in1016.9 mb 0.00 in0.0 mm 0.00 in0.0 mm 0.00 in0.0 mm
03:29 PM 21.9°F-5.6°C 12.6°F-10.8°C 67% 5.0 mph N8.0 kmh N 16.0 mph25.7 kmh 30.03 in1016.9 mb 0.00 in0.0 mm 0.00 in0.0 mm 0.00 in0.0 mm
03:22 PM 22.1°F-5.5°C 12.7°F-10.7°C 67% 5.0 mph N8.0 kmh N 16.0 mph25.7 kmh 30.02 in1016.6 mb 0.00 in0.0 mm 0.00 in0.0 mm 0.00 in0.0 mm
03:15 PM 22.1°F-5.5°C 13.5°F-10.3°C 69% 4.0 mph N6.4 kmh N 13.0 mph20.9 kmh 30.02 in1016.6 mb 0.00 in0.0 mm 0.00 in0.0 mm 0.00 in0.0 mm
03:08 PM 22.1°F-5.5°C 13.5°F-10.3°C 69% 1.0 mph N1.6 kmh N 7.0 mph11.3 kmh 30.01 in1016.3 mb 0.00 in0.0 mm 0.00 in0.0 mm 0.00 in0.0 mm
03:01 PM 21.9°F-5.6°C 13.3°F-10.4°C 69% 3.0 mph N4.8 kmh N 8.0 mph12.9 kmh 30.01 in1016.3 mb 0.00 in0.0 mm 0.00 in0.0 mm 0.00 in0.0 mm
02:54 PM 21.7°F-5.7°C 13.1°F-10.5°C 69% 3.0 mph N4.8 kmh N 7.0 mph11.3 kmh 30.00 in1015.9 mb 0.00 in0.0 mm 0.00 in0.0 mm 0.00 in0.0 mm
02:47 PM 21.7°F-5.7°C 13.1°F-10.5°C 69% 3.0 mph N4.8 kmh N 8.0 mph12.9 kmh 30.00 in1015.9 mb 0.00 in0.0 mm 0.00 in0.0 mm 0.00 in0.0 mm
02:40 PM 21.4°F-5.9°C 12.7°F-10.7°C 69% 5.0 mph N8.0 kmh N 13.0 mph20.9 kmh 29.99 in1015.6 mb 0.00 in0.0 mm 0.00 in0.0 mm 0.00 in0.0 mm
02:33 PM 21.7°F-5.7°C 13.1°F-10.5°C 69% 4.0 mph N6.4 kmh N 13.0 mph20.9 kmh 29.99 in1015.6 mb 0.00 in0.0 mm 0.00 in0.0 mm 0.00 in0.0 mm
02:26 PM 22.3°F-5.4°C 13.6°F-10.2°C 69% 4.0 mph N6.4 kmh N 12.0 mph19.3 kmh 29.98 in1015.2 mb 0.00 in0.0 mm 0.00 in0.0 mm 0.00 in0.0 mm
02:19 PM 22.3°F-5.4°C 13.6°F-10.2°C 69% 4.0 mph N6.4 kmh N 12.0 mph19.3 kmh 29.98 in1015.2 mb 0.00 in0.0 mm 0.00 in0.0 mm 0.00 in0.0 mm
02:12 PM 22.3°F-5.4°C 14.0°F-10.0°C 70% 4.0 mph N6.4 kmh N 12.0 mph19.3 kmh 29.97 in1014.9 mb 0.00 in0.0 mm 0.00 in0.0 mm 0.00 in0.0 mm
02:05 PM 22.5°F-5.3°C 14.2°F-9.9°C 70% 5.0 mph N8.0 kmh N 13.0 mph20.9 kmh 29.97 in1014.9 mb 0.00 in0.0 mm 0.00 in0.0 mm 0.00 in0.0 mm
01:58 PM 22.5°F-5.3°C 13.8°F-10.1°C 69% 5.0 mph N8.0 kmh N 13.0 mph20.9 kmh 29.97 in1014.9 mb 0.00 in0.0 mm 0.00 in0.0 mm 0.00 in0.0 mm
01:51 PM 22.5°F-5.3°C 14.2°F-9.9°C 70% 7.0 mph N11.3 kmh N 17.0 mph27.4 kmh 29.96 in1014.6 mb 0.00 in0.0 mm 0.00 in0.0 mm 0.00 in0.0 mm
01:44 PM 22.6°F-5.2°C 14.4°F-9.8°C 70% 9.0 mph N14.5 kmh N 25.0 mph40.2 kmh 29.96 in1014.6 mb 0.00 in0.0 mm 0.00 in0.0 mm 0.00 in0.0 mm
01:37 PM 23.2°F-4.9°C 14.5°F-9.7°C 69% 9.0 mph N14.5 kmh N 21.0 mph33.8 kmh 29.95 in1014.2 mb 0.00 in0.0 mm 0.00 in0.0 mm 0.00 in0.0 mm
01:30 PM 23.7°F-4.6°C 14.0°F-10.0°C 66% 9.0 mph N14.5 kmh N 21.0 mph33.8 kmh 29.95 in1014.2 mb 0.00 in0.0 mm 0.00 in0.0 mm 0.00 in0.0 mm
01:23 PM 24.3°F-4.3°C 14.9°F-9.5°C 67% 9.0 mph N14.5 kmh N 21.0 mph33.8 kmh 29.94 in1013.9 mb 0.00 in0.0 mm 0.00 in0.0 mm 0.00 in0.0 mm
01:16 PM 24.1°F-4.4°C 14.5°F-9.7°C 67% 11.0 mph N17.7 kmh N 19.0 mph30.6 kmh 29.94 in1013.9 mb 0.00 in0.0 mm 0.00 in0.0 mm 0.00 in0.0 mm
01:09 PM 24.1°F-4.4°C 14.7°F-9.6°C 67% 9.0 mph N14.5 kmh N 19.0 mph30.6 kmh 29.93 in1013.5 mb 0.00 in0.0 mm 0.00 in0.0 mm 0.00 in0.0 mm
01:02 PM 24.1°F-4.4°C 14.5°F-9.7°C 67% 9.0 mph N14.5 kmh N 24.0 mph38.6 kmh 29.93 in1013.5 mb 0.00 in0.0 mm 0.00 in0.0 mm 0.00 in0.0 mm
12:55 PM 24.1°F-4.4°C 14.5°F-9.7°C 67% 9.0 mph N14.5 kmh N 23.0 mph37.0 kmh 29.93 in1013.5 mb 0.00 in0.0 mm 0.00 in0.0 mm 0.00 in0.0 mm
12:48 PM 24.1°F-4.4°C 14.7°F-9.6°C 67% 11.0 mph N17.7 kmh N 24.0 mph38.6 kmh 29.93 in1013.5 mb 0.00 in0.0 mm 0.00 in0.0 mm 0.00 in0.0 mm
12:41 PM 24.3°F-4.3°C 14.5°F-9.7°C 66% 9.0 mph N14.5 kmh N 24.0 mph38.6 kmh 29.92 in1013.2 mb 0.00 in0.0 mm 0.00 in0.0 mm 0.00 in0.0 mm
12:34 PM 24.1°F-4.4°C 14.7°F-9.6°C 67% 9.0 mph N14.5 kmh N 20.0 mph32.2 kmh 29.92 in1013.2 mb 0.00 in0.0 mm 0.00 in0.0 mm 0.00 in0.0 mm
12:27 PM 24.1°F-4.4°C 14.4°F-9.8°C 66% 9.0 mph N14.5 kmh N 25.0 mph40.2 kmh 29.93 in1013.5 mb 0.00 in0.0 mm 0.00 in0.0 mm 0.00 in0.0 mm
12:20 PM 24.1°F-4.4°C 14.4°F-9.8°C 66% 9.0 mph N14.5 kmh N 19.0 mph30.6 kmh 29.92 in1013.2 mb 0.00 in0.0 mm 0.00 in0.0 mm 0.00 in0.0 mm
12:13 PM 23.9°F-4.5°C 14.2°F-9.9°C 66% 9.0 mph N14.5 kmh N 24.0 mph38.6 kmh 29.92 in1013.2 mb 0.00 in0.0 mm 0.00 in0.0 mm 0.00 in0.0 mm
12:06 PM 23.5°F-4.7°C 14.2°F-9.9°C 67% 9.0 mph N14.5 kmh N 24.0 mph38.6 kmh 29.92 in1013.2 mb 0.00 in0.0 mm 0.00 in0.0 mm 0.00 in0.0 mm
11:59 AM 23.5°F-4.7°C 14.2°F-9.9°C 67% 8.0 mph N12.9 kmh N 20.0 mph32.2 kmh 29.92 in1013.2 mb 0.00 in0.0 mm 0.00 in0.0 mm 0.00 in0.0 mm
11:52 AM 23.4°F-4.8°C 14.0°F-10.0°C 67% 9.0 mph N14.5 kmh N 20.0 mph32.2 kmh 29.91 in1012.9 mb 0.00 in0.0 mm 0.00 in0.0 mm 0.00 in0.0 mm
11:45 AM 23.0°F-5.0°C 13.6°F-10.2°C 67% 11.0 mph N17.7 kmh N 23.0 mph37.0 kmh 29.91 in1012.9 mb 0.00 in0.0 mm 0.00 in0.0 mm 0.00 in0.0 mm
11:38 AM 22.8°F-5.1°C 13.8°F-10.1°C 68% 9.0 mph N14.5 kmh N 27.0 mph43.5 kmh 29.91 in1012.9 mb 0.00 in0.0 mm 0.00 in0.0 mm 0.00 in0.0 mm
11:31 AM 22.8°F-5.1°C 13.8°F-10.1°C 68% 8.0 mph N12.9 kmh N 21.0 mph33.8 kmh 29.91 in1012.9 mb 0.00 in0.0 mm 0.00 in0.0 mm 0.00 in0.0 mm
11:24 AM 22.6°F-5.2°C 13.6°F-10.2°C 68% 8.0 mph N12.9 kmh N 19.0 mph30.6 kmh 29.91 in1012.9 mb 0.00 in0.0 mm 0.00 in0.0 mm 0.00 in0.0 mm
11:17 AM 22.6°F-5.2°C 13.6°F-10.2°C 68% 8.0 mph N12.9 kmh N 23.0 mph37.0 kmh 29.91 in1012.9 mb 0.00 in0.0 mm 0.00 in0.0 mm 0.00 in0.0 mm
11:10 AM 22.5°F-5.3°C 13.5°F-10.3°C 68% 8.0 mph N12.9 kmh N 21.0 mph33.8 kmh 29.91 in1012.9 mb 0.00 in0.0 mm 0.00 in0.0 mm 0.00 in0.0 mm
11:03 AM 22.5°F-5.3°C 13.5°F-10.3°C 68% 8.0 mph N12.9 kmh N 21.0 mph33.8 kmh 29.91 in1012.9 mb 0.00 in0.0 mm 0.00 in0.0 mm 0.00 in0.0 mm
10:56 AM 22.5°F-5.3°C 13.8°F-10.1°C 69% 7.0 mph N11.3 kmh N 20.0 mph32.2 kmh 29.91 in1012.9 mb 0.00 in0.0 mm 0.00 in0.0 mm 0.00 in0.0 mm
10:49 AM 22.3°F-5.4°C 13.8°F-10.1°C 70% 7.0 mph N11.3 kmh N 17.0 mph27.4 kmh 29.90 in1012.5 mb 0.00 in0.0 mm 0.00 in0.0 mm 0.00 in0.0 mm
10:42 AM 21.7°F-5.7°C 13.5°F-10.3°C 70% 7.0 mph N11.3 kmh N 20.0 mph32.2 kmh 29.90 in1012.5 mb 0.00 in0.0 mm 0.00 in0.0 mm 0.00 in0.0 mm
10:35 AM 21.6°F-5.8°C 13.3°F-10.4°C 70% 8.0 mph N12.9 kmh N 20.0 mph32.2 kmh 29.89 in1012.2 mb 0.00 in0.0 mm 0.00 in0.0 mm 0.00 in0.0 mm
10:28 AM 21.4°F-5.9°C 13.1°F-10.5°C 70% 8.0 mph N12.9 kmh N 21.0 mph33.8 kmh 29.89 in1012.2 mb 0.00 in0.0 mm 0.00 in0.0 mm 0.00 in0.0 mm
10:21 AM 21.4°F-5.9°C 13.1°F-10.5°C 70% 8.0 mph N12.9 kmh N 24.0 mph38.6 kmh 29.89 in1012.2 mb 0.00 in0.0 mm 0.00 in0.0 mm 0.00 in0.0 mm
10:14 AM 21.0°F-6.1°C 12.7°F-10.7°C 70% 7.0 mph N11.3 kmh N 17.0 mph27.4 kmh 29.88 in1011.9 mb 0.00 in0.0 mm 0.00 in0.0 mm 0.00 in0.0 mm
10:07 AM 20.8°F-6.2°C 12.9°F-10.6°C 71% 8.0 mph N12.9 kmh N 19.0 mph30.6 kmh 29.88 in1011.9 mb 0.00 in0.0 mm 0.00 in0.0 mm 0.00 in0.0 mm
10:00 AM 20.8°F-6.2°C 12.6°F-10.8°C 70% 8.0 mph N12.9 kmh N 19.0 mph30.6 kmh 29.88 in1011.9 mb 0.00 in0.0 mm 0.00 in0.0 mm 0.00 in0.0 mm
09:53 AM 20.8°F-6.2°C 12.6°F-10.8°C 70% 8.0 mph N12.9 kmh N 20.0 mph32.2 kmh 29.88 in1011.9 mb 0.00 in0.0 mm 0.00 in0.0 mm 0.00 in0.0 mm
09:46 AM 20.8°F-6.2°C 12.6°F-10.8°C 70% 7.0 mph N11.3 kmh N 17.0 mph27.4 kmh 29.87 in1011.5 mb 0.00 in0.0 mm 0.00 in0.0 mm 0.00 in0.0 mm
09:39 AM 21.0°F-6.1°C 12.7°F-10.7°C 70% 7.0 mph N11.3 kmh N 24.0 mph38.6 kmh 29.87 in1011.5 mb 0.00 in0.0 mm 0.00 in0.0 mm 0.00 in0.0 mm
09:32 AM 21.0°F-6.1°C 12.7°F-10.7°C 70% 7.0 mph N11.3 kmh N 24.0 mph38.6 kmh 29.87 in1011.5 mb 0.00 in0.0 mm 0.00 in0.0 mm 0.00 in0.0 mm
09:25 AM 21.0°F-6.1°C 12.4°F-10.9°C 69% 7.0 mph N11.3 kmh N 16.0 mph25.7 kmh 29.86 in1011.2 mb 0.00 in0.0 mm 0.00 in0.0 mm 0.00 in0.0 mm
09:18 AM 21.0°F-6.1°C 12.6°F-10.8°C 69% 7.0 mph N11.3 kmh N 15.0 mph24.1 kmh 29.86 in1011.2 mb 0.00 in0.0 mm 0.00 in0.0 mm 0.00 in0.0 mm
09:11 AM 21.2°F-6.0°C 12.6°F-10.8°C 69% 5.0 mph N8.0 kmh N 16.0 mph25.7 kmh 29.86 in1011.2 mb 0.00 in0.0 mm 0.00 in0.0 mm 0.00 in0.0 mm
09:04 AM 21.4°F-5.9°C 12.6°F-10.8°C 68% 7.0 mph N11.3 kmh N 16.0 mph25.7 kmh 29.86 in1011.2 mb 0.00 in0.0 mm 0.00 in0.0 mm 0.00 in0.0 mm
08:57 AM 21.6°F-5.8°C 12.6°F-10.8°C 68% 7.0 mph N11.3 kmh N 16.0 mph25.7 kmh 29.85 in1010.8 mb 0.00 in0.0 mm 0.00 in0.0 mm 0.00 in0.0 mm
08:50 AM 21.6°F-5.8°C 12.7°F-10.7°C 68% 7.0 mph N11.3 kmh N 16.0 mph25.7 kmh 29.85 in1010.8 mb 0.00 in0.0 mm 0.00 in0.0 mm 0.00 in0.0 mm
08:43 AM 21.7°F-5.7°C 12.4°F-10.9°C 67% 8.0 mph N12.9 kmh N 17.0 mph27.4 kmh 29.85 in1010.8 mb 0.00 in0.0 mm 0.00 in0.0 mm 0.00 in0.0 mm
08:36 AM 21.7°F-5.7°C 12.4°F-10.9°C 67% 8.0 mph N12.9 kmh N 19.0 mph30.6 kmh 29.85 in1010.8 mb 0.00 in0.0 mm 0.00 in0.0 mm 0.00 in0.0 mm
08:29 AM 21.7°F-5.7°C 12.2°F-11.0°C 66% 8.0 mph N12.9 kmh N 21.0 mph33.8 kmh 29.84 in1010.5 mb 0.00 in0.0 mm 0.00 in0.0 mm 0.00 in0.0 mm
08:22 AM 21.9°F-5.6°C 12.6°F-10.8°C 67% 8.0 mph N12.9 kmh N 21.0 mph33.8 kmh 29.84 in1010.5 mb 0.00 in0.0 mm 0.00 in0.0 mm 0.00 in0.0 mm
08:15 AM 21.9°F-5.6°C 12.6°F-10.8°C 67% 9.0 mph N14.5 kmh N 21.0 mph33.8 kmh 29.84 in1010.5 mb 0.00 in0.0 mm 0.00 in0.0 mm 0.00 in0.0 mm
08:08 AM 21.9°F-5.6°C 12.6°F-10.8°C 67% 7.0 mph N11.3 kmh N 17.0 mph27.4 kmh 29.83 in1010.2 mb 0.00 in0.0 mm 0.00 in0.0 mm 0.00 in0.0 mm
08:01 AM 21.9°F-5.6°C 12.7°F-10.7°C 67% 7.0 mph N11.3 kmh N 21.0 mph33.8 kmh 29.83 in1010.2 mb 0.00 in0.0 mm 0.00 in0.0 mm 0.00 in0.0 mm
07:54 AM 21.9°F-5.6°C 12.7°F-10.7°C 67% 7.0 mph N11.3 kmh N 21.0 mph33.8 kmh 29.82 in1009.8 mb 0.00 in0.0 mm 0.00 in0.0 mm 0.00 in0.0 mm
07:47 AM 22.1°F-5.5°C 12.7°F-10.7°C 67% 7.0 mph N11.3 kmh N 15.0 mph24.1 kmh 29.82 in1009.8 mb 0.00 in0.0 mm 0.00 in0.0 mm 0.00 in0.0 mm
07:40 AM 22.1°F-5.5°C 12.7°F-10.7°C 67% 7.0 mph N11.3 kmh N 15.0 mph24.1 kmh 29.82 in1009.8 mb 0.00 in0.0 mm 0.00 in0.0 mm 0.00 in0.0 mm
07:33 AM 22.1°F-5.5°C 12.7°F-10.7°C 67% 8.0 mph N12.9 kmh N 19.0 mph30.6 kmh 29.82 in1009.8 mb 0.00 in0.0 mm 0.00 in0.0 mm 0.00 in0.0 mm
07:26 AM 22.3°F-5.4°C 12.9°F-10.6°C 67% 7.0 mph N11.3 kmh N 16.0 mph25.7 kmh 29.82 in1009.8 mb 0.00 in0.0 mm 0.00 in0.0 mm 0.00 in0.0 mm
07:19 AM 22.3°F-5.4°C 12.9°F-10.6°C 67% 8.0 mph N12.9 kmh N 17.0 mph27.4 kmh 29.81 in1009.5 mb 0.00 in0.0 mm 0.00 in0.0 mm 0.00 in0.0 mm
07:12 AM 22.3°F-5.4°C 12.9°F-10.6°C 67% 8.0 mph N12.9 kmh N 19.0 mph30.6 kmh 29.81 in1009.5 mb 0.00 in0.0 mm 0.00 in0.0 mm 0.00 in0.0 mm
07:05 AM 22.3°F-5.4°C 12.9°F-10.6°C 67% 8.0 mph N12.9 kmh N 24.0 mph38.6 kmh 29.81 in1009.5 mb 0.00 in0.0 mm 0.00 in0.0 mm 0.00 in0.0 mm
06:58 AM 22.5°F-5.3°C 13.1°F-10.5°C 67% 8.0 mph N12.9 kmh N 19.0 mph30.6 kmh 29.80 in1009.1 mb 0.00 in0.0 mm 0.00 in0.0 mm 0.00 in0.0 mm
06:51 AM 22.5°F-5.3°C 12.9°F-10.6°C 66% 9.0 mph N14.5 kmh N 21.0 mph33.8 kmh 29.80 in1009.1 mb 0.00 in0.0 mm 0.00 in0.0 mm 0.00 in0.0 mm
06:44 AM 22.6°F-5.2°C 13.3°F-10.4°C 67% 9.0 mph N14.5 kmh N 23.0 mph37.0 kmh 29.80 in1009.1 mb 0.00 in0.0 mm 0.00 in0.0 mm 0.00 in0.0 mm
06:37 AM 22.6°F-5.2°C 13.5°F-10.3°C 67% 8.0 mph N12.9 kmh N 17.0 mph27.4 kmh 29.80 in1009.1 mb 0.00 in0.0 mm 0.00 in0.0 mm 0.00 in0.0 mm
06:30 AM 22.8°F-5.1°C 13.5°F-10.3°C 67% 9.0 mph N14.5 kmh N 19.0 mph30.6 kmh 29.79 in1008.8 mb 0.00 in0.0 mm 0.00 in0.0 mm 0.00 in0.0 mm
06:23 AM 22.8°F-5.1°C 13.6°F-10.2°C 67% 7.0 mph N11.3 kmh N 19.0 mph30.6 kmh 29.78 in1008.5 mb 0.00 in0.0 mm 0.00 in0.0 mm 0.00 in0.0 mm
06:16 AM 23.0°F-5.0°C 14.0°F-10.0°C 68% 7.0 mph N11.3 kmh N 19.0 mph30.6 kmh 29.78 in1008.5 mb 0.00 in0.0 mm 0.00 in0.0 mm 0.00 in0.0 mm
06:09 AM 23.0°F-5.0°C 14.0°F-10.0°C 68% 8.0 mph N12.9 kmh N 20.0 mph32.2 kmh 29.78 in1008.5 mb 0.00 in0.0 mm 0.00 in0.0 mm 0.00 in0.0 mm
06:02 AM 23.2°F-4.9°C 14.2°F-9.9°C 68% 8.0 mph N12.9 kmh N 20.0 mph32.2 kmh 29.77 in1008.1 mb 0.00 in0.0 mm 0.00 in0.0 mm 0.00 in0.0 mm
05:55 AM 23.2°F-4.9°C 14.4°F-9.8°C 68% 9.0 mph N14.5 kmh N 20.0 mph32.2 kmh 29.77 in1008.1 mb 0.00 in0.0 mm 0.00 in0.0 mm 0.00 in0.0 mm
05:48 AM 23.4°F-4.8°C 14.4°F-9.8°C 68% 9.0 mph N14.5 kmh N 24.0 mph38.6 kmh 29.76 in1007.8 mb 0.00 in0.0 mm 0.00 in0.0 mm 0.00 in0.0 mm
05:41 AM 23.4°F-4.8°C 14.4°F-9.8°C 68% 9.0 mph N14.5 kmh N 27.0 mph43.5 kmh 29.75 in1007.5 mb 0.00 in0.0 mm 0.00 in0.0 mm 0.00 in0.0 mm
05:34 AM 23.5°F-4.7°C 14.5°F-9.7°C 68% 7.0 mph N11.3 kmh N 20.0 mph32.2 kmh 29.75 in1007.5 mb 0.00 in0.0 mm 0.00 in0.0 mm 0.00 in0.0 mm
05:27 AM 23.5°F-4.7°C 14.2°F-9.9°C 67% 8.0 mph N12.9 kmh N 24.0 mph38.6 kmh 29.75 in1007.5 mb 0.00 in0.0 mm 0.00 in0.0 mm 0.00 in0.0 mm
05:20 AM 23.7°F-4.6°C 14.4°F-9.8°C 67% 12.0 mph N19.3 kmh N 29.0 mph46.7 kmh 29.75 in1007.5 mb 0.00 in0.0 mm 0.00 in0.0 mm 0.00 in0.0 mm
05:13 AM 24.1°F-4.4°C 14.5°F-9.7°C 67% 11.0 mph N17.7 kmh N 29.0 mph46.7 kmh 29.74 in1007.1 mb 0.00 in0.0 mm 0.00 in0.0 mm 0.00 in0.0 mm
05:06 AM 24.3°F-4.3°C 14.9°F-9.5°C 67% 9.0 mph N14.5 kmh N 24.0 mph38.6 kmh 29.74 in1007.1 mb 0.00 in0.0 mm 0.00 in0.0 mm 0.00 in0.0 mm
04:59 AM 24.4°F-4.2°C 15.1°F-9.4°C 67% 11.0 mph N17.7 kmh N 27.0 mph43.5 kmh 29.74 in1007.1 mb 0.00 in0.0 mm 0.00 in0.0 mm 0.00 in0.0 mm
04:52 AM 24.4°F-4.2°C 15.1°F-9.4°C 67% 11.0 mph N17.7 kmh N 27.0 mph43.5 kmh 29.73 in1006.8 mb 0.00 in0.0 mm 0.00 in0.0 mm 0.00 in0.0 mm
04:45 AM 24.6°F-4.1°C 15.3°F-9.3°C 67% 12.0 mph N19.3 kmh N 23.0 mph37.0 kmh 29.73 in1006.8 mb 0.00 in0.0 mm 0.00 in0.0 mm 0.00 in0.0 mm
04:38 AM 24.8°F-4.0°C 15.4°F-9.2°C 67% 9.0 mph N14.5 kmh N 24.0 mph38.6 kmh 29.72 in1006.4 mb 0.00 in0.0 mm 0.00 in0.0 mm 0.00 in0.0 mm
04:31 AM 25.2°F-3.8°C 16.0°F-8.9°C 68% 8.0 mph N12.9 kmh N 24.0 mph38.6 kmh 29.72 in1006.4 mb 0.00 in0.0 mm 0.00 in0.0 mm 0.00 in0.0 mm
04:24 AM 25.3°F-3.7°C 15.8°F-9.0°C 67% 11.0 mph N17.7 kmh N 24.0 mph38.6 kmh 29.72 in1006.4 mb 0.00 in0.0 mm 0.00 in0.0 mm 0.00 in0.0 mm
04:17 AM 25.5°F-3.6°C 16.0°F-8.9°C 67% 11.0 mph N17.7 kmh N 25.0 mph40.2 kmh 29.71 in1006.1 mb 0.00 in0.0 mm 0.00 in0.0 mm 0.00 in0.0 mm
04:10 AM 25.7°F-3.5°C 16.3°F-8.7°C 67% 9.0 mph N14.5 kmh N 25.0 mph40.2 kmh 29.71 in1006.1 mb 0.00 in0.0 mm 0.00 in0.0 mm 0.00 in0.0 mm
04:03 AM 25.9°F-3.4°C 16.7°F-8.5°C 68% 9.0 mph N14.5 kmh N 25.0 mph40.2 kmh 29.71 in1006.1 mb 0.00 in0.0 mm 0.00 in0.0 mm 0.00 in0.0 mm
03:56 AM 25.9°F-3.4°C 16.7°F-8.5°C 68% 9.0 mph N14.5 kmh N 25.0 mph40.2 kmh 29.70 in1005.8 mb 0.00 in0.0 mm 0.00 in0.0 mm 0.00 in0.0 mm
03:49 AM 26.1°F-3.3°C 16.9°F-8.4°C 68% 9.0 mph N14.5 kmh N 24.0 mph38.6 kmh 29.70 in1005.8 mb 0.00 in0.0 mm 0.00 in0.0 mm 0.00 in0.0 mm
03:42 AM 26.2°F-3.2°C 17.2°F-8.2°C 68% 11.0 mph N17.7 kmh N 24.0 mph38.6 kmh 29.70 in1005.8 mb 0.00 in0.0 mm 0.00 in0.0 mm 0.00 in0.0 mm
03:35 AM 26.6°F-3.0°C 17.4°F-8.1°C 68% 11.0 mph N17.7 kmh N 31.0 mph49.9 kmh 29.70 in1005.8 mb 0.00 in0.0 mm 0.00 in0.0 mm 0.00 in0.0 mm
03:28 AM 27.0°F-2.8°C 17.8°F-7.9°C 68% 9.0 mph N14.5 kmh N 23.0 mph37.0 kmh 29.69 in1005.4 mb 0.00 in0.0 mm 0.00 in0.0 mm 0.00 in0.0 mm
03:21 AM 27.3°F-2.6°C 18.1°F-7.7°C 68% 9.0 mph N14.5 kmh N 21.0 mph33.8 kmh 29.69 in1005.4 mb 0.00 in0.0 mm 0.00 in0.0 mm 0.00 in0.0 mm
03:14 AM 27.7°F-2.4°C 18.5°F-7.5°C 68% 8.0 mph N12.9 kmh N 21.0 mph33.8 kmh 29.68 in1005.1 mb 0.00 in0.0 mm 0.00 in0.0 mm 0.00 in0.0 mm
03:07 AM 27.9°F-2.3°C 18.7°F-7.4°C 68% 9.0 mph N14.5 kmh N 25.0 mph40.2 kmh 29.68 in1005.1 mb 0.00 in0.0 mm 0.00 in0.0 mm 0.00 in0.0 mm
03:00 AM 28.0°F-2.2°C 18.9°F-7.3°C 68% 11.0 mph N17.7 kmh N 25.0 mph40.2 kmh 29.68 in1005.1 mb 0.00 in0.0 mm 0.00 in0.0 mm 0.00 in0.0 mm
02:53 AM 28.2°F-2.1°C 19.4°F-7.0°C 69% 9.0 mph N14.5 kmh N 24.0 mph38.6 kmh 29.68 in1005.1 mb 0.00 in0.0 mm 0.00 in0.0 mm 0.00 in0.0 mm
02:46 AM 28.6°F-1.9°C 19.6°F-6.9°C 69% 9.0 mph N14.5 kmh N 33.0 mph53.1 kmh 29.67 in1004.7 mb 0.00 in0.0 mm 0.00 in0.0 mm 0.00 in0.0 mm
02:39 AM 28.6°F-1.9°C 19.8°F-6.8°C 69% 8.0 mph N12.9 kmh N 33.0 mph53.1 kmh 29.67 in1004.7 mb 0.00 in0.0 mm 0.00 in0.0 mm 0.00 in0.0 mm
02:32 AM 28.8°F-1.8°C 20.1°F-6.6°C 70% 8.0 mph N12.9 kmh N 23.0 mph37.0 kmh 29.66 in1004.4 mb 0.00 in0.0 mm 0.00 in0.0 mm 0.00 in0.0 mm
02:25 AM 28.8°F-1.8°C 20.1°F-6.6°C 70% 11.0 mph N17.7 kmh N 27.0 mph43.5 kmh 29.66 in1004.4 mb 0.00 in0.0 mm 0.00 in0.0 mm 0.00 in0.0 mm
02:18 AM 29.1°F-1.6°C 20.5°F-6.4°C 70% 9.0 mph N14.5 kmh N 27.0 mph43.5 kmh 29.65 in1004.1 mb 0.00 in0.0 mm 0.00 in0.0 mm 0.00 in0.0 mm
02:11 AM 29.5°F-1.4°C 20.8°F-6.2°C 70% 9.0 mph N14.5 kmh N 21.0 mph33.8 kmh 29.65 in1004.1 mb 0.00 in0.0 mm 0.00 in0.0 mm 0.00 in0.0 mm
02:04 AM 29.7°F-1.3°C 21.0°F-6.1°C 70% 7.0 mph N11.3 kmh N 20.0 mph32.2 kmh 29.64 in1003.7 mb 0.00 in0.0 mm 0.00 in0.0 mm 0.00 in0.0 mm
01:57 AM 29.8°F-1.2°C 21.6°F-5.8°C 71% 9.0 mph N14.5 kmh N 23.0 mph37.0 kmh 29.64 in1003.7 mb 0.00 in0.0 mm 0.00 in0.0 mm 0.00 in0.0 mm
01:50 AM 30.0°F-1.1°C 21.4°F-5.9°C 70% 8.0 mph N12.9 kmh N 23.0 mph37.0 kmh 29.63 in1003.4 mb 0.00 in0.0 mm 0.00 in0.0 mm 0.00 in0.0 mm
01:43 AM 30.0°F-1.1°C 21.6°F-5.8°C 70% 7.0 mph N11.3 kmh N 15.0 mph24.1 kmh 29.63 in1003.4 mb 0.00 in0.0 mm 0.00 in0.0 mm 0.00 in0.0 mm
01:36 AM 30.0°F-1.1°C 21.6°F-5.8°C 70% 8.0 mph N12.9 kmh N 20.0 mph32.2 kmh 29.62 in1003.0 mb 0.00 in0.0 mm 0.00 in0.0 mm 0.00 in0.0 mm
01:29 AM 30.0°F-1.1°C 21.6°F-5.8°C 70% 8.0 mph N12.9 kmh N 24.0 mph38.6 kmh 29.62 in1003.0 mb 0.00 in0.0 mm 0.00 in0.0 mm 0.00 in0.0 mm
01:22 AM 30.0°F-1.1°C 21.7°F-5.7°C 71% 9.0 mph N14.5 kmh N 23.0 mph37.0 kmh 29.62 in1003.0 mb 0.00 in0.0 mm 0.00 in0.0 mm 0.00 in0.0 mm
01:15 AM 30.0°F-1.1°C 21.7°F-5.7°C 71% 8.0 mph N12.9 kmh N 23.0 mph37.0 kmh 29.62 in1003.0 mb 0.00 in0.0 mm 0.00 in0.0 mm 0.00 in0.0 mm
01:08 AM 29.8°F-1.2°C 21.9°F-5.6°C 72% 7.0 mph N11.3 kmh N 17.0 mph27.4 kmh 29.62 in1003.0 mb 0.00 in0.0 mm 0.00 in0.0 mm 0.00 in0.0 mm
01:01 AM 29.8°F-1.2°C 21.9°F-5.6°C 72% 8.0 mph N12.9 kmh N 19.0 mph30.6 kmh 29.61 in1002.7 mb 0.00 in0.0 mm 0.00 in0.0 mm 0.00 in0.0 mm
12:54 AM 29.8°F-1.2°C 21.9°F-5.6°C 72% 7.0 mph N11.3 kmh N 17.0 mph27.4 kmh 29.61 in1002.7 mb 0.00 in0.0 mm 0.00 in0.0 mm 0.00 in0.0 mm
12:47 AM 29.8°F-1.2°C 22.3°F-5.4°C 73% 8.0 mph N12.9 kmh N 15.0 mph24.1 kmh 29.61 in1002.7 mb 0.00 in0.0 mm 0.00 in0.0 mm 0.00 in0.0 mm
12:40 AM 29.8°F-1.2°C 22.3°F-5.4°C 73% 8.0 mph N12.9 kmh N 27.0 mph43.5 kmh 29.61 in1002.7 mb 0.00 in0.0 mm 0.00 in0.0 mm 0.00 in0.0 mm
12:33 AM 29.8°F-1.2°C 22.3°F-5.4°C 73% 8.0 mph N12.9 kmh N 19.0 mph30.6 kmh 29.60 in1002.4 mb 0.00 in0.0 mm 0.00 in0.0 mm 0.00 in0.0 mm
12:26 AM 29.8°F-1.2°C 22.3°F-5.4°C 73% 7.0 mph N11.3 kmh N 20.0 mph32.2 kmh 29.60 in1002.4 mb 0.00 in0.0 mm 0.00 in0.0 mm 0.00 in0.0 mm
12:19 AM 30.0°F-1.1°C 22.5°F-5.3°C 73% 7.0 mph N11.3 kmh N 20.0 mph32.2 kmh 29.60 in1002.4 mb 0.00 in0.0 mm 0.00 in0.0 mm 0.00 in0.0 mm
12:12 AM 30.2°F-1.0°C 22.8°F-5.1°C 74% 7.0 mph N11.3 kmh N 16.0 mph25.7 kmh 29.60 in1002.4 mb 0.00 in0.0 mm 0.00 in0.0 mm 0.00 in0.0 mm
12:05 AM 30.4°F-0.9°C 23.0°F-5.0°C 74% 8.0 mph N12.9 kmh N 17.0 mph27.4 kmh 29.60 in1002.4 mb 0.00 in0.0 mm 0.00 in0.0 mm 0.00 in0.0 mm